Time;durP1;ratioP1;P1;durP2;ratioP2;P2;SDS_P1;SDS_P2;PMS_P1;PMS_P2;Temp;Humidity;BMP_temperature;BMP_pressure;BME280_temperature;BME280_humidity;BME280_pressure;Samples;Min_cycle;Max_cycle;Signal;HPM_P1;HPM_P2
2024/01/16 00:00:30;;;;;;;22.70;15.48;;;0.40;99.90;;;;;;5040418;28;20654;-77
2024/01/16 00:02:58;;;;;;;33.22;16.35;;;0.40;99.90;;;;;;5036720;28;21475;-74
2024/01/16 00:05:24;;;;;;;23.60;15.32;;;0.40;99.90;;;;;;5029114;28;20115;-76
2024/01/16 00:07:51;;;;;;;25.27;14.77;;;0.40;99.90;;;;;;5033494;28;20137;-75
2024/01/16 00:10:18;;;;;;;26.33;14.52;;;0.40;99.90;;;;;;5032497;28;20053;-76
2024/01/16 00:12:45;;;;;;;36.80;14.88;;;0.40;99.90;;;;;;5035986;28;20499;-76
2024/01/16 00:15:11;;;;;;;18.00;11.45;;;0.40;99.90;;;;;;5033433;28;20045;-76
2024/01/16 00:17:38;;;;;;;24.30;15.07;;;0.40;99.90;;;;;;5036390;28;20044;-76
2024/01/16 00:20:06;;;;;;;29.30;15.90;;;0.40;99.90;;;;;;5034320;28;20419;-74
2024/01/16 00:22:32;;;;;;;26.92;14.57;;;0.40;99.90;;;;;;5035363;28;20132;-75
2024/01/16 00:24:59;;;;;;;33.17;15.98;;;0.40;99.90;;;;;;5033937;28;20049;-75
2024/01/16 00:27:26;;;;;;;26.48;15.30;;;0.40;99.90;;;;;;5030888;28;20416;-75
2024/01/16 00:29:53;;;;;;;25.75;15.15;;;0.30;99.90;;;;;;5033606;28;20691;-75
2024/01/16 00:32:19;;;;;;;25.00;15.30;;;0.30;99.90;;;;;;5030030;28;20052;-76
2024/01/16 00:34:46;;;;;;;26.50;14.73;;;0.30;99.90;;;;;;5035523;28;20518;-76
2024/01/16 00:37:13;;;;;;;35.17;18.20;;;0.30;99.90;;;;;;5030333;28;20469;-76
2024/01/16 00:39:40;;;;;;;41.03;17.00;;;0.40;99.90;;;;;;5033642;28;20759;-74
2024/01/16 00:42:07;;;;;;;34.22;21.48;;;0.30;99.90;;;;;;5026612;28;20077;-74
2024/01/16 00:44:34;;;;;;;41.17;23.48;;;0.30;99.90;;;;;;5025245;28;20072;-77
2024/01/16 00:47:01;;;;;;;38.80;23.30;;;0.30;99.90;;;;;;5028093;28;20554;-76
2024/01/16 00:49:29;;;;;;;41.78;24.33;;;0.30;99.90;;;;;;5034411;28;20113;-76
2024/01/16 00:51:55;;;;;;;54.63;26.50;;;0.30;99.90;;;;;;5026323;28;20049;-76
2024/01/16 00:54:22;;;;;;;57.92;28.75;;;0.20;99.90;;;;;;5024714;28;20553;-76
2024/01/16 00:56:49;;;;;;;59.33;27.98;;;0.20;99.90;;;;;;5031400;28;20115;-77
2024/01/16 00:59:16;;;;;;;49.38;23.92;;;0.20;99.90;;;;;;5026987;28;20033;-75
2024/01/16 01:01:43;;;;;;;51.13;27.40;;;0.20;99.90;;;;;;5036142;28;20041;-76
2024/01/16 01:04:10;;;;;;;57.83;28.95;;;0.20;99.90;;;;;;5015836;28;20041;-75
2024/01/16 01:06:37;;;;;;;50.05;28.25;;;0.20;99.90;;;;;;5016922;28;20057;-76
2024/01/16 01:09:04;;;;;;;63.20;30.02;;;0.20;99.90;;;;;;5023483;28;20048;-76
2024/01/16 01:11:30;;;;;;;69.50;31.98;;;0.20;99.90;;;;;;5030048;28;20064;-75
2024/01/16 01:13:58;;;;;;;64.07;31.13;;;0.20;99.90;;;;;;5033460;28;20048;-75
2024/01/16 01:16:25;;;;;;;65.68;32.17;;;0.20;99.90;;;;;;5014193;28;20055;-75
2024/01/16 01:18:52;;;;;;;56.40;30.88;;;0.10;99.90;;;;;;5035056;28;20077;-75
2024/01/16 01:21:19;;;;;;;61.70;28.45;;;0.20;99.90;;;;;;5015863;28;20645;-75
2024/01/16 01:23:46;;;;;;;48.10;25.70;;;0.10;99.90;;;;;;5034203;28;20170;-75
2024/01/16 01:26:13;;;;;;;51.60;25.42;;;0.10;99.90;;;;;;5021607;28;20037;-76
2024/01/16 01:28:41;;;;;;;44.17;22.98;;;0.10;99.90;;;;;;5031382;28;20088;-75
2024/01/16 01:31:12;;;;;;;50.83;20.38;;;0.10;99.90;;;;;;5030179;28;20045;-75
2024/01/16 01:33:39;;;;;;;39.92;19.75;;;0.10;99.90;;;;;;5030668;28;20048;-75
2024/01/16 01:36:06;;;;;;;34.25;17.77;;;0.10;99.90;;;;;;5028309;28;20091;-77
2024/01/16 01:38:33;;;;;;;35.83;18.27;;;0.10;99.90;;;;;;5020649;28;20741;-76
2024/01/16 01:41:00;;;;;;;34.22;14.70;;;0.10;99.90;;;;;;5013156;28;21034;-74
2024/01/16 01:43:27;;;;;;;30.23;14.60;;;0.10;99.90;;;;;;5016611;28;20510;-76
2024/01/16 01:46:08;;;;;;;30.75;15.75;;;0.10;99.90;;;;;;5017572;28;20052;-76
2024/01/16 01:48:40;;;;;;;34.20;16.08;;;0.10;99.90;;;;;;5028513;28;20054;-76
2024/01/16 01:51:13;;;;;;;35.95;15.68;;;0.10;99.90;;;;;;5019266;28;20779;-77
2024/01/16 01:53:41;;;;;;;34.92;15.85;;;0.10;99.90;;;;;;5027548;28;20074;-75
2024/01/16 01:56:13;;;;;;;39.72;20.60;;;0.10;99.90;;;;;;5013420;28;20044;-76
2024/01/16 01:58:42;;;;;;;45.47;19.80;;;0.10;99.90;;;;;;4989855;28;20049;-75
2024/01/16 02:01:12;;;;;;;46.95;19.35;;;0.10;99.90;;;;;;5032946;28;20048;-74
2024/01/16 02:03:42;;;;;;;44.85;20.48;;;0.10;99.90;;;;;;5029963;28;20404;-77
2024/01/16 02:06:11;;;;;;;44.53;22.02;;;0.10;99.90;;;;;;5003321;28;20043;-77
2024/01/16 02:08:41;;;;;;;48.83;22.40;;;0.10;99.90;;;;;;5018516;28;20041;-77
2024/01/16 02:11:09;;;;;;;47.45;21.55;;;0.10;99.90;;;;;;5024825;28;20052;-77
2024/01/16 02:13:37;;;;;;;41.00;23.25;;;0.10;99.90;;;;;;5055507;28;20057;-76
2024/01/16 02:16:05;;;;;;;39.90;24.58;;;0.10;99.90;;;;;;5054854;28;20063;-75
2024/01/16 02:18:32;;;;;;;42.60;23.85;;;0.10;99.90;;;;;;5038300;28;20060;-75
2024/01/16 02:21:03;;;;;;;51.13;25.02;;;0.10;99.90;;;;;;5035404;28;20042;-77
2024/01/16 02:23:31;;;;;;;48.95;24.35;;;0.10;99.90;;;;;;5032642;28;20431;-76
2024/01/16 02:25:58;;;;;;;53.90;27.80;;;0.10;99.90;;;;;;5033054;28;20041;-76
2024/01/16 02:28:25;;;;;;;56.67;27.23;;;0.20;99.90;;;;;;5030325;28;20053;-77
2024/01/16 02:30:52;;;;;;;56.50;29.48;;;0.20;99.90;;;;;;5023954;28;20045;-76
2024/01/16 02:33:25;;;;;;;58.60;27.40;;;0.20;99.90;;;;;;5082685;27;20415;-74
2024/01/16 02:35:52;;;;;;;58.25;27.35;;;0.20;99.90;;;;;;5070254;28;20057;-74
2024/01/16 02:38:20;;;;;;;55.13;27.38;;;0.20;99.90;;;;;;5080588;28;20643;-74
2024/01/16 02:40:46;;;;;;;49.72;26.60;;;0.20;99.90;;;;;;5071421;28;20295;-72
2024/01/16 02:43:13;;;;;;;60.90;30.05;;;0.20;99.90;;;;;;5055728;28;20048;-73
2024/01/16 02:45:40;;;;;;;56.53;29.85;;;0.10;99.90;;;;;;5067974;28;20056;-73
2024/01/16 02:48:07;;;;;;;60.42;30.17;;;0.20;99.90;;;;;;5083792;27;20470;-74
2024/01/16 02:50:34;;;;;;;69.85;30.95;;;0.10;99.90;;;;;;5066582;28;20040;-72
2024/01/16 02:53:00;;;;;;;57.33;29.98;;;0.10;99.90;;;;;;5076608;28;20052;-72
2024/01/16 02:55:27;;;;;;;59.53;30.88;;;0.10;99.90;;;;;;5100347;27;20048;-72
2024/01/16 02:57:54;;;;;;;64.80;32.10;;;0.10;99.90;;;;;;5080149;28;20052;-73
2024/01/16 03:00:22;;;;;;;69.47;31.40;;;0.10;99.90;;;;;;5079305;27;20571;-73
2024/01/16 03:02:49;;;;;;;73.53;31.90;;;0.10;99.90;;;;;;5079145;28;20077;-73
2024/01/16 03:05:16;;;;;;;85.55;36.55;;;0.10;99.90;;;;;;5072529;28;20043;-74
2024/01/16 03:07:43;;;;;;;74.10;31.77;;;0.10;99.90;;;;;;5077515;28;20139;-73
2024/01/16 03:10:10;;;;;;;85.63;36.92;;;0.10;99.90;;;;;;5070690;28;20086;-74
2024/01/16 03:12:37;;;;;;;93.47;35.80;;;0.10;99.90;;;;;;5105073;27;20048;-74
2024/01/16 03:15:05;;;;;;;83.97;34.83;;;0.10;99.90;;;;;;5077097;28;20096;-72
2024/01/16 03:17:32;;;;;;;70.80;34.92;;;0.10;99.90;;;;;;5078001;28;20676;-72
2024/01/16 03:19:59;;;;;;;70.30;31.92;;;0.10;99.90;;;;;;5074753;28;20040;-75
2024/01/16 03:22:26;;;;;;;81.25;37.42;;;0.10;99.90;;;;;;5058476;28;20054;-74
2024/01/16 03:24:52;;;;;;;79.60;37.15;;;0.10;99.90;;;;;;5073616;28;20711;-73
2024/01/16 03:27:19;;;;;;;80.57;34.05;;;0.10;99.90;;;;;;5055135;28;20544;-75
2024/01/16 03:29:48;;;;;;;89.07;35.90;;;0.10;99.90;;;;;;5059898;28;20040;-74
2024/01/16 03:32:15;;;;;;;70.70;33.63;;;0.10;99.90;;;;;;5050380;28;20044;-72
2024/01/16 03:34:42;;;;;;;79.00;33.45;;;0.10;99.90;;;;;;5041002;28;20139;-73
2024/01/16 03:37:08;;;;;;;72.53;34.58;;;0.00;99.90;;;;;;5048162;28;20044;-73
2024/01/16 03:39:35;;;;;;;70.45;32.35;;;0.10;99.90;;;;;;5055949;28;20057;-72
2024/01/16 03:42:05;;;;;;;83.15;33.03;;;0.10;99.90;;;;;;5057971;28;20560;-73
2024/01/16 03:44:32;;;;;;;72.00;33.35;;;0.10;99.90;;;;;;5048287;28;20036;-73
2024/01/16 03:46:59;;;;;;;69.07;30.17;;;0.10;99.90;;;;;;5033317;28;20045;-72
2024/01/16 03:49:26;;;;;;;57.25;28.05;;;0.00;99.90;;;;;;5043949;28;20048;-72
2024/01/16 03:51:52;;;;;;;60.60;27.60;;;0.00;99.90;;;;;;5042604;28;20040;-71
2024/01/16 03:54:19;;;;;;;55.53;27.73;;;0.00;99.90;;;;;;5061444;28;20041;-73
2024/01/16 03:56:46;;;;;;;49.50;23.33;;;0.00;99.90;;;;;;5038392;28;20033;-73
2024/01/16 03:59:13;;;;;;;65.18;28.15;;;-0.10;99.90;;;;;;5033237;28;20087;-72
2024/01/16 04:01:41;;;;;;;71.30;29.08;;;0.00;99.90;;;;;;5052408;28;20496;-73
2024/01/16 04:04:08;;;;;;;64.78;31.00;;;-0.10;99.90;;;;;;5085695;27;20089;-72
2024/01/16 04:06:35;;;;;;;55.47;26.67;;;0.00;99.90;;;;;;5080969;22;20052;-75
2024/01/16 04:09:02;;;;;;;62.15;27.05;;;0.00;99.90;;;;;;5028642;28;20068;-74
2024/01/16 04:11:29;;;;;;;73.15;30.40;;;0.00;99.90;;;;;;5025150;28;20033;-75
2024/01/16 04:13:56;;;;;;;73.85;30.00;;;0.00;99.90;;;;;;5028170;28;20634;-75
2024/01/16 04:16:23;;;;;;;74.03;31.70;;;0.00;99.90;;;;;;5022854;28;20103;-76
2024/01/16 04:18:50;;;;;;;73.45;28.65;;;0.00;99.90;;;;;;5014570;28;20059;-76
2024/01/16 04:21:18;;;;;;;78.43;32.33;;;0.00;99.90;;;;;;5019386;28;20117;-76
2024/01/16 04:23:46;;;;;;;67.95;29.70;;;0.00;99.90;;;;;;5021190;28;20559;-75
2024/01/16 04:26:13;;;;;;;64.80;29.35;;;0.00;99.90;;;;;;5033151;28;20048;-76
2024/01/16 04:28:41;;;;;;;68.93;32.25;;;0.00;99.90;;;;;;5014874;28;20134;-75
2024/01/16 04:31:08;;;;;;;67.63;28.90;;;0.00;99.90;;;;;;5000348;28;20049;-74
2024/01/16 04:33:35;;;;;;;76.25;33.53;;;0.00;99.90;;;;;;5015786;28;20046;-76
2024/01/16 04:36:02;;;;;;;72.45;30.58;;;0.00;99.90;;;;;;5013555;28;20819;-75
2024/01/16 04:38:29;;;;;;;75.75;32.83;;;0.00;99.90;;;;;;5019317;28;20034;-76
2024/01/16 04:40:55;;;;;;;75.53;30.67;;;0.00;99.90;;;;;;5019543;28;20049;-76
2024/01/16 04:43:22;;;;;;;83.78;34.75;;;0.00;99.90;;;;;;5011525;28;20056;-75
2024/01/16 04:45:49;;;;;;;68.50;30.15;;;0.00;99.90;;;;;;5014073;28;20091;-75
2024/01/16 04:48:16;;;;;;;79.20;30.65;;;0.00;99.90;;;;;;5017797;28;20053;-74
2024/01/16 04:50:45;;;;;;;72.53;30.80;;;0.00;99.90;;;;;;5027009;28;20252;-75
2024/01/16 04:53:12;;;;;;;80.43;33.90;;;0.00;99.90;;;;;;5014721;28;20053;-75
2024/01/16 04:55:38;;;;;;;70.10;30.98;;;0.00;99.90;;;;;;5017294;28;20169;-77
2024/01/16 04:58:05;;;;;;;72.72;28.73;;;0.00;99.90;;;;;;5017010;28;20041;-75
2024/01/16 05:00:32;;;;;;;82.63;32.65;;;0.00;99.90;;;;;;5018953;28;20381;-74
2024/01/16 05:02:59;;;;;;;71.53;31.42;;;0.00;99.90;;;;;;5015875;28;20050;-76
2024/01/16 05:05:26;;;;;;;85.05;31.40;;;-0.10;99.90;;;;;;4999783;28;20146;-76
2024/01/16 05:07:56;;;;;;;71.35;29.48;;;0.00;99.90;;;;;;5017122;28;20373;-76
2024/01/16 05:10:22;;;;;;;74.75;29.00;;;-0.10;99.90;;;;;;5020100;28;20156;-76
2024/01/16 05:12:49;;;;;;;77.00;29.65;;;-0.10;99.90;;;;;;5020391;28;20049;-77
2024/01/16 05:15:16;;;;;;;63.65;28.63;;;-0.10;99.90;;;;;;5013230;28;20045;-78
2024/01/16 05:17:43;;;;;;;65.63;30.30;;;-0.10;99.90;;;;;;5004815;28;20044;-76
2024/01/16 05:20:10;;;;;;;65.60;28.70;;;-0.10;99.90;;;;;;5016816;28;20052;-74
2024/01/16 05:22:38;;;;;;;76.95;30.20;;;-0.10;99.90;;;;;;5014516;28;20742;-76
2024/01/16 05:25:09;;;;;;;63.40;26.80;;;-0.10;99.90;;;;;;5014005;28;20038;-75
2024/01/16 05:27:36;;;;;;;67.63;29.60;;;-0.10;99.90;;;;;;5000180;28;20052;-74
2024/01/16 05:30:03;;;;;;;63.92;28.02;;;-0.10;99.90;;;;;;5016823;28;20901;-77
2024/01/16 05:32:30;;;;;;;70.00;28.52;;;0.00;99.90;;;;;;5014046;28;20042;-76
2024/01/16 05:34:57;;;;;;;69.97;30.05;;;0.00;99.90;;;;;;5017281;28;20508;-74
2024/01/16 05:37:24;;;;;;;67.05;28.02;;;-0.10;99.90;;;;;;5011758;28;20128;-74
2024/01/16 05:39:51;;;;;;;64.05;28.33;;;-0.10;99.90;;;;;;5031336;28;20107;-74
2024/01/16 05:42:17;;;;;;;67.22;28.00;;;-0.10;99.90;;;;;;5016029;28;20079;-76
2024/01/16 05:44:44;;;;;;;76.15;32.35;;;0.00;99.90;;;;;;5016262;28;20044;-75
2024/01/16 05:47:11;;;;;;;64.85;28.60;;;-0.10;99.90;;;;;;5017456;28;20053;-75
2024/01/16 05:49:38;;;;;;;73.65;29.15;;;-0.10;99.90;;;;;;5018290;28;20037;-76
2024/01/16 05:52:05;;;;;;;70.75;30.38;;;0.00;99.90;;;;;;4997470;28;20041;-75
2024/01/16 05:54:32;;;;;;;70.10;27.20;;;0.00;99.90;;;;;;5016306;28;20608;-76
2024/01/16 05:56:59;;;;;;;67.43;27.25;;;0.00;99.90;;;;;;5018230;28;20045;-74
2024/01/16 05:59:26;;;;;;;66.80;28.80;;;-0.10;99.90;;;;;;5022694;28;20045;-75
2024/01/16 06:01:53;;;;;;;71.35;28.25;;;0.00;99.90;;;;;;5014878;28;20065;-76
2024/01/16 06:04:20;;;;;;;66.55;25.73;;;0.00;99.90;;;;;;5020033;28;20599;-75
2024/01/16 06:06:47;;;;;;;58.47;24.92;;;0.00;99.90;;;;;;5010910;28;20064;-76
2024/01/16 06:09:15;;;;;;;72.45;27.95;;;0.10;99.90;;;;;;5019162;28;20307;-77
2024/01/16 06:11:42;;;;;;;70.30;27.92;;;0.10;99.90;;;;;;5020916;28;20045;-75
2024/01/16 06:14:09;;;;;;;73.53;28.98;;;0.10;99.90;;;;;;4999850;28;20686;-74
2024/01/16 06:16:36;;;;;;;72.00;29.38;;;0.10;99.90;;;;;;5029178;28;20082;-75
2024/01/16 06:19:04;;;;;;;70.18;28.10;;;0.10;99.90;;;;;;5002140;28;20106;-75
2024/01/16 06:21:31;;;;;;;79.63;30.23;;;0.10;99.90;;;;;;5012303;28;20048;-76
2024/01/16 06:23:58;;;;;;;83.25;28.83;;;0.00;99.90;;;;;;5031605;28;20073;-75
2024/01/16 06:26:25;;;;;;;68.20;28.80;;;0.00;99.90;;;;;;5047114;28;20108;-76
2024/01/16 06:28:52;;;;;;;81.47;31.67;;;0.10;99.90;;;;;;5049805;28;20110;-75
2024/01/16 06:31:19;;;;;;;77.03;29.10;;;0.10;99.90;;;;;;5007298;28;20498;-77
2024/01/16 06:33:46;;;;;;;67.65;27.48;;;0.10;99.90;;;;;;5013488;28;20033;-76
2024/01/16 06:36:13;;;;;;;55.45;23.55;;;0.10;99.90;;;;;;5008303;28;20068;-75
2024/01/16 06:38:40;;;;;;;64.28;28.20;;;0.00;99.90;;;;;;5015653;28;20068;-75
2024/01/16 06:41:08;;;;;;;66.13;27.55;;;0.00;99.90;;;;;;4998987;28;20037;-74
2024/01/16 06:43:34;;;;;;;70.20;30.35;;;0.10;99.90;;;;;;5020517;28;20107;-75
2024/01/16 06:46:01;;;;;;;76.90;28.67;;;0.10;99.90;;;;;;5009202;28;20070;-73
2024/01/16 06:48:28;;;;;;;65.88;28.10;;;0.00;99.90;;;;;;5012687;28;20049;-76
2024/01/16 06:50:55;;;;;;;71.32;28.15;;;0.00;99.90;;;;;;5017346;28;20042;-74
2024/01/16 06:53:23;;;;;;;66.65;27.00;;;0.10;99.90;;;;;;5042153;28;20520;-75
2024/01/16 06:55:49;;;;;;;64.15;27.38;;;0.10;99.90;;;;;;5010851;28;20707;-75
2024/01/16 06:58:16;;;;;;;64.50;27.30;;;0.10;99.90;;;;;;5014739;28;21333;-74
2024/01/16 07:00:44;;;;;;;76.65;30.30;;;0.20;99.90;;;;;;5017538;28;20111;-76
2024/01/16 07:03:11;;;;;;;71.70;30.80;;;0.20;99.90;;;;;;5004293;28;20057;-76
2024/01/16 07:05:38;;;;;;;65.45;28.10;;;0.20;99.90;;;;;;5010885;28;20037;-75
2024/01/16 07:08:05;;;;;;;68.43;30.20;;;0.10;99.90;;;;;;4989177;28;20049;-73
2024/01/16 07:10:32;;;;;;;72.97;29.23;;;0.10;99.90;;;;;;5002942;28;20053;-75
2024/01/16 07:12:59;;;;;;;70.15;30.30;;;0.20;99.90;;;;;;5007780;28;20616;-73
2024/01/16 07:15:26;;;;;;;70.80;31.20;;;0.20;99.90;;;;;;5010817;28;20127;-73
2024/01/16 08:24:55;;;;;;;72.53;36.35;;;0.00;99.90;;;;;;5081312;27;20418;-68
2024/01/16 08:27:23;;;;;;;55.47;30.65;;;0.40;99.90;;;;;;5045688;28;20057;-68
2024/01/16 08:29:49;;;;;;;70.05;33.47;;;0.40;99.90;;;;;;5037994;28;20128;-67
2024/01/16 08:32:17;;;;;;;69.47;29.75;;;0.40;99.90;;;;;;5040770;28;20044;-67
2024/01/16 08:34:44;;;;;;;64.80;31.15;;;0.40;99.90;;;;;;5055985;28;20048;-68
2024/01/16 08:37:10;;;;;;;64.00;29.90;;;0.40;99.90;;;;;;5039068;28;20136;-68
2024/01/16 08:39:38;;;;;;;59.65;27.92;;;0.40;99.90;;;;;;5018547;22;20072;-82
2024/01/16 08:42:05;;;;;;;64.55;30.63;;;0.40;99.90;;;;;;4985653;28;20066;-83
2024/01/16 08:44:32;;;;;;;68.28;31.00;;;0.40;99.90;;;;;;4982990;28;20053;-84
2024/01/16 08:47:00;;;;;;;61.33;31.45;;;0.30;99.90;;;;;;4983853;28;20046;-80
2024/01/16 08:49:27;;;;;;;69.10;31.58;;;0.40;99.90;;;;;;4981618;28;20060;-80
2024/01/16 08:51:54;;;;;;;65.38;32.20;;;0.40;99.90;;;;;;4974022;28;20054;-82
2024/01/16 08:54:22;;;;;;;64.05;29.83;;;0.40;99.90;;;;;;4974800;28;20129;-83
2024/01/16 08:56:49;;;;;;;53.67;26.80;;;0.40;99.90;;;;;;4979974;28;20049;-80
2024/01/16 08:59:16;;;;;;;66.60;29.83;;;0.40;99.90;;;;;;4976692;28;20046;-83
2024/01/16 09:01:43;;;;;;;65.65;28.30;;;0.40;99.90;;;;;;4970489;28;20062;-85
2024/01/16 09:04:11;;;;;;;58.80;28.98;;;0.40;99.90;;;;;;4976123;28;20519;-84
2024/01/16 09:06:38;;;;;;;66.53;29.60;;;0.40;99.90;;;;;;4954721;28;20089;-85
2024/01/16 09:09:06;;;;;;;55.92;29.60;;;0.50;99.90;;;;;;4982380;28;20681;-82
2024/01/16 09:11:33;;;;;;;59.88;29.73;;;0.40;99.90;;;;;;4956505;28;20050;-85
2024/01/16 09:14:00;;;;;;;53.45;27.55;;;0.40;99.90;;;;;;4968134;28;20088;-84
2024/01/16 09:16:30;;;;;;;54.88;27.88;;;0.40;99.90;;;;;;4969135;28;20562;-85
2024/01/16 09:18:57;;;;;;;58.20;28.48;;;0.40;99.90;;;;;;4969708;28;20049;-84
2024/01/16 09:21:25;;;;;;;55.65;28.00;;;0.40;99.90;;;;;;4974631;28;20421;-85
2024/01/16 09:23:52;;;;;;;54.10;28.92;;;0.40;99.90;;;;;;4974771;28;20112;-87
2024/01/16 09:26:19;;;;;;;74.65;30.27;;;0.50;99.90;;;;;;4967462;28;20038;-82
2024/01/16 09:28:46;;;;;;;71.63;36.83;;;0.50;99.90;;;;;;4970621;28;20050;-85
2024/01/16 09:31:15;;;;;;;68.90;32.75;;;0.50;99.90;;;;;;4969790;28;20046;-85
2024/01/16 09:33:43;;;;;;;51.83;26.60;;;0.40;99.90;;;;;;4961501;28;20045;-85
2024/01/16 09:36:10;;;;;;;50.80;29.13;;;0.40;99.90;;;;;;4949027;28;21016;-82
2024/01/16 09:38:37;;;;;;;55.80;31.17;;;0.50;99.90;;;;;;4975216;28;20069;-83
2024/01/16 09:41:07;;;;;;;55.45;29.65;;;0.50;99.90;;;;;;4968632;28;20050;-85
2024/01/16 09:43:37;;;;;;;60.40;29.63;;;0.50;99.90;;;;;;4966078;28;20500;-84
2024/01/16 09:46:05;;;;;;;50.83;28.13;;;0.60;99.90;;;;;;4957628;28;20133;-85
2024/01/16 09:48:32;;;;;;;54.13;28.10;;;0.60;99.90;;;;;;4975227;28;20065;-83
2024/01/16 09:51:00;;;;;;;58.22;28.95;;;0.60;99.90;;;;;;4961650;28;20105;-84
2024/01/16 09:53:27;;;;;;;50.60;29.52;;;0.60;99.90;;;;;;4966864;28;20054;-83
2024/01/16 09:55:57;;;;;;;50.08;27.77;;;0.60;99.90;;;;;;4952061;28;20045;-82
2024/01/16 09:58:25;;;;;;;51.92;26.05;;;0.60;99.90;;;;;;4962862;28;20137;-83
2024/01/16 10:00:52;;;;;;;44.65;28.83;;;0.60;99.90;;;;;;4977505;28;20529;-86
2024/01/16 10:03:20;;;;;;;53.35;28.77;;;0.50;99.90;;;;;;4969069;28;20054;-82
2024/01/16 10:05:48;;;;;;;53.78;30.20;;;0.50;99.90;;;;;;4976779;28;20480;-83
2024/01/16 10:08:16;;;;;;;52.25;30.30;;;0.50;99.90;;;;;;4948516;28;20116;-82
2024/01/16 10:10:43;;;;;;;74.78;35.63;;;0.60;99.90;;;;;;4965929;28;20057;-83
2024/01/16 10:13:17;;;;;;;54.83;30.45;;;0.70;99.90;;;;;;4968872;28;20169;-86
2024/01/16 10:15:44;;;;;;;58.00;29.80;;;0.60;99.90;;;;;;4969901;28;20083;-83
2024/01/16 10:18:23;;;;;;;53.33;30.83;;;0.60;99.90;;;;;;4976337;28;21556;-83
2024/01/16 10:20:53;;;;;;;60.65;29.73;;;0.50;99.90;;;;;;4984250;28;20093;-85
2024/01/16 10:23:25;;;;;;;59.20;33.03;;;0.50;99.90;;;;;;4969920;28;20551;-84
2024/01/16 10:26:12;;;;;;;49.15;27.48;;;0.40;99.90;;;;;;4941692;28;20134;-85
2024/01/16 10:28:42;;;;;;;48.42;24.48;;;0.40;99.90;;;;;;4941976;28;20104;-83
2024/01/16 10:31:11;;;;;;;55.72;30.88;;;0.40;99.90;;;;;;4965635;28;20161;-83
2024/01/16 10:33:40;;;;;;;77.53;36.58;;;0.50;99.90;;;;;;4964906;28;21557;-83
2024/01/16 10:36:20;;;;;;;66.70;39.22;;;0.50;99.90;;;;;;4948222;28;20113;-84
2024/01/16 10:38:57;;;;;;;54.33;31.10;;;0.40;99.90;;;;;;4980171;28;20043;-83
2024/01/16 10:41:25;;;;;;;36.63;26.13;;;0.30;99.90;;;;;;4952849;28;20102;-85
2024/01/16 10:44:08;;;;;;;48.00;28.80;;;0.30;99.90;;;;;;4940938;28;20039;-82
2024/01/16 10:46:36;;;;;;;44.45;27.30;;;0.30;99.90;;;;;;4955890;28;20493;-85
2024/01/16 10:49:04;;;;;;;96.90;48.47;;;0.30;99.90;;;;;;4943290;28;20058;-84
2024/01/16 10:51:32;;;;;;;35.22;23.23;;;0.30;99.90;;;;;;4968633;28;20329;-84
2024/01/16 10:54:03;;;;;;;35.65;22.33;;;0.30;99.90;;;;;;4956953;28;20053;-84
2024/01/16 10:56:32;;;;;;;48.80;23.15;;;0.40;99.90;;;;;;4966871;28;20115;-83
2024/01/16 10:59:24;;;;;;;40.10;22.52;;;0.40;99.90;;;;;;4943301;28;20044;-84
2024/01/16 11:01:56;;;;;;;35.95;20.25;;;0.30;99.90;;;;;;4961791;28;20048;-84
2024/01/16 11:04:24;;;;;;;22.77;19.25;;;0.30;99.90;;;;;;4958081;28;20106;-84
2024/01/16 11:06:52;;;;;;;31.67;21.75;;;0.30;99.90;;;;;;4956320;28;20050;-83
2024/01/16 11:09:21;;;;;;;29.35;21.77;;;0.30;99.90;;;;;;4971094;28;20127;-85
2024/01/16 11:11:53;;;;;;;24.60;18.73;;;0.40;99.90;;;;;;4960125;28;20386;-82
2024/01/16 11:14:23;;;;;;;36.85;21.98;;;0.40;99.90;;;;;;4940656;28;20071;-83
2024/01/16 11:16:51;;;;;;;27.45;20.35;;;0.40;99.90;;;;;;4964406;28;20038;-83
2024/01/16 11:19:21;;;;;;;31.10;22.38;;;0.30;99.90;;;;;;4948979;28;20046;-85
2024/01/16 11:22:08;;;;;;;42.65;26.23;;;0.40;99.90;;;;;;4980028;28;20038;-83
2024/01/16 11:24:35;;;;;;;23.67;21.20;;;0.50;99.90;;;;;;4953971;28;20113;-85
2024/01/16 11:27:03;;;;;;;34.45;21.90;;;0.50;99.90;;;;;;4953976;28;20101;-83
2024/01/16 11:29:30;;;;;;;36.78;22.60;;;0.50;99.90;;;;;;4955116;28;20160;-85
2024/01/16 11:32:00;;;;;;;36.50;24.90;;;0.50;99.90;;;;;;4942367;28;20042;-84
2024/01/16 11:34:54;;;;;;;26.17;21.00;;;0.50;99.90;;;;;;4939824;28;20058;-85
2024/01/16 11:37:30;;;;;;;21.63;19.58;;;0.60;99.90;;;;;;4954487;28;20080;-80
2024/01/16 11:40:22;;;;;;;23.83;19.77;;;0.60;99.90;;;;;;4952637;28;20070;-84
2024/01/16 11:42:50;;;;;;;27.52;18.83;;;0.60;99.90;;;;;;4961602;28;20113;-86
2024/01/16 11:45:29;;;;;;;27.58;20.52;;;0.60;99.90;;;;;;4971117;28;20074;-86
2024/01/16 11:48:15;;;;;;;21.65;19.52;;;0.50;99.90;;;;;;4963951;28;20129;-84
2024/01/16 11:50:44;;;;;;;26.77;23.95;;;0.60;99.90;;;;;;4967422;28;20049;-85
2024/01/16 11:53:33;;;;;;;25.17;23.00;;;0.60;99.90;;;;;;4969477;28;20054;-83
2024/01/16 11:56:19;;;;;;;26.83;21.05;;;0.60;99.90;;;;;;4970278;28;20042;-86
2024/01/16 11:59:25;;;;;;;21.27;19.48;;;0.60;99.90;;;;;;4970894;28;20077;-84
2024/01/16 12:01:57;;;;;;;22.10;19.98;;;0.60;99.90;;;;;;4964806;28;20069;-86
2024/01/16 12:04:24;;;;;;;25.45;22.80;;;0.70;99.90;;;;;;4968364;28;20053;-83
2024/01/16 12:06:59;;;;;;;21.35;19.13;;;0.70;99.90;;;;;;4984967;28;20046;-87
2024/01/16 12:09:28;;;;;;;23.17;20.77;;;0.60;99.90;;;;;;4963922;28;20053;-85
2024/01/16 12:12:00;;;;;;;20.38;18.65;;;0.60;99.90;;;;;;4966932;28;20161;-85
2024/01/16 12:14:29;;;;;;;21.35;19.45;;;0.70;99.90;;;;;;4964605;28;20132;-85
2024/01/16 12:17:25;;;;;;;22.73;19.30;;;0.70;99.90;;;;;;4978597;28;20822;-83
2024/01/16 12:19:53;;;;;;;24.13;19.75;;;0.70;99.90;;;;;;4949184;28;20042;-84
2024/01/16 12:22:23;;;;;;;24.52;20.08;;;0.70;99.90;;;;;;4968936;28;20477;-84
2024/01/16 12:24:56;;;;;;;22.55;20.23;;;0.70;99.90;;;;;;4995831;28;20478;-85
2024/01/16 12:27:23;;;;;;;23.88;21.48;;;0.70;99.90;;;;;;4965797;28;20636;-83
2024/01/16 12:30:03;;;;;;;24.17;21.63;;;0.80;99.90;;;;;;4974691;28;20125;-84
2024/01/16 12:32:31;;;;;;;23.30;20.88;;;0.80;99.90;;;;;;4961148;28;20058;-85
2024/01/16 12:34:58;;;;;;;25.40;21.00;;;0.70;99.90;;;;;;4954923;28;20587;-86
2024/01/16 12:37:25;;;;;;;23.02;20.02;;;0.70;99.90;;;;;;4960778;28;20058;-84
2024/01/16 12:39:52;;;;;;;21.02;19.00;;;0.60;99.90;;;;;;4968207;28;20744;-84
2024/01/16 12:42:19;;;;;;;22.90;20.58;;;0.60;99.90;;;;;;4975955;28;20073;-86
2024/01/16 12:44:49;;;;;;;27.65;20.60;;;0.60;99.90;;;;;;4952415;28;20046;-84
2024/01/16 12:47:21;;;;;;;26.65;20.67;;;0.60;99.90;;;;;;4947107;28;20077;-83
2024/01/16 12:49:49;;;;;;;22.85;20.17;;;0.70;99.90;;;;;;4956067;28;20054;-85
2024/01/16 12:52:18;;;;;;;21.98;19.88;;;0.70;99.90;;;;;;4955510;28;20050;-86
2024/01/16 12:54:46;;;;;;;22.95;20.90;;;0.70;99.90;;;;;;4942839;28;20047;-85
2024/01/16 12:57:22;;;;;;;30.02;27.35;;;0.70;99.90;;;;;;4971048;28;20042;-85
2024/01/16 12:59:52;;;;;;;25.23;22.75;;;0.70;99.90;;;;;;4939908;28;20045;-84
2024/01/16 13:02:25;;;;;;;23.98;21.73;;;0.60;99.90;;;;;;4956322;28;20109;-86
2024/01/16 13:05:02;;;;;;;26.75;23.85;;;0.60;99.90;;;;;;4991168;28;20073;-85
2024/01/16 13:07:31;;;;;;;25.75;21.50;;;0.50;99.90;;;;;;4965612;28;20043;-87
2024/01/16 13:10:18;;;;;;;23.63;21.70;;;0.50;99.90;;;;;;4984312;28;20046;-86
2024/01/16 13:12:49;;;;;;;25.15;22.75;;;0.50;99.90;;;;;;4985738;28;20062;-84
2024/01/16 13:15:29;;;;;;;23.33;21.48;;;0.50;99.90;;;;;;4962174;28;20077;-86
2024/01/16 13:18:36;;;;;;;31.45;26.30;;;0.50;99.90;;;;;;4986869;28;20053;-85
2024/01/16 13:21:46;;;;;;;25.25;23.08;;;0.60;99.90;;;;;;4972845;28;20046;-86
2024/01/16 13:24:17;;;;;;;25.52;23.02;;;0.50;99.90;;;;;;4985167;23;20165;-76
2024/01/16 13:26:44;;;;;;;23.45;21.55;;;0.50;99.90;;;;;;4952430;28;20051;-73
2024/01/16 13:29:11;;;;;;;33.90;28.13;;;0.50;99.90;;;;;;4930486;28;20183;-74
2024/01/16 13:31:38;;;;;;;23.00;20.67;;;0.50;99.90;;;;;;4947215;28;20046;-75
2024/01/16 13:34:05;;;;;;;22.48;20.60;;;0.50;99.90;;;;;;4944624;28;20134;-73
2024/01/16 13:36:32;;;;;;;25.85;22.10;;;0.50;99.90;;;;;;4952669;28;20057;-74
2024/01/16 13:39:20;;;;;;;22.75;20.10;;;0.50;99.90;;;;;;4977558;28;20954;-76
2024/01/16 13:41:47;;;;;;;22.27;20.38;;;0.50;99.90;;;;;;4984370;28;20106;-76
2024/01/16 13:44:14;;;;;;;23.02;20.58;;;0.50;99.90;;;;;;4961710;28;20145;-77
2024/01/16 13:46:41;;;;;;;22.67;20.58;;;0.60;99.90;;;;;;4959632;28;20048;-76
2024/01/16 13:49:27;;;;;;;23.35;21.00;;;0.50;99.90;;;;;;4964882;28;20069;-74
2024/01/16 13:51:54;;;;;;;22.88;20.90;;;0.50;99.90;;;;;;4963877;28;20054;-76